Time;durP1;ratioP1;P1;durP2;ratioP2;P2;SDS_P1;SDS_P2;PMS_P1;PMS_P2;Temp;Humidity;BMP_temperature;BMP_pressure;BME280_temperature;BME280_humidity;BME280_pressure;Samples;Min_cycle;Max_cycle;Signal;HPM_P1;HPM_P2
2023/06/05 00:01:15;;;;;;;2.90;2.40;;;17.10;72.90;;;;;;5034735;28;20017;-74
2023/06/05 00:03:43;;;;;;;4.28;3.15;;;17.00;73.10;;;;;;5034511;28;20415;-74
2023/06/05 00:06:09;;;;;;;5.57;3.70;;;17.00;74.10;;;;;;5033573;28;20025;-73
2023/06/05 00:08:35;;;;;;;3.90;3.50;;;17.00;73.90;;;;;;5034062;28;20024;-73
2023/06/05 00:11:00;;;;;;;4.38;3.75;;;17.00;74.20;;;;;;5041906;28;20018;-74
2023/06/05 00:13:26;;;;;;;3.78;3.20;;;17.00;74.60;;;;;;5054027;28;20025;-74
2023/06/05 00:15:52;;;;;;;3.70;3.28;;;17.00;74.80;;;;;;5039646;28;20025;-73
2023/06/05 00:18:18;;;;;;;3.42;3.08;;;17.00;75.10;;;;;;5034257;28;20443;-75
2023/06/05 00:20:44;;;;;;;3.95;3.38;;;17.00;75.30;;;;;;5034299;28;20039;-74
2023/06/05 00:23:13;;;;;;;4.65;2.95;;;17.00;75.40;;;;;;5034054;28;20116;-74
2023/06/05 00:25:39;;;;;;;4.43;3.83;;;17.00;75.70;;;;;;5033441;28;20100;-75
2023/06/05 00:28:05;;;;;;;3.20;2.83;;;16.90;76.00;;;;;;5033640;28;20535;-74
2023/06/05 00:30:30;;;;;;;2.78;2.55;;;16.90;76.30;;;;;;5033978;28;20108;-74
2023/06/05 00:32:56;;;;;;;3.65;3.00;;;16.90;76.60;;;;;;5033677;28;20044;-75
2023/06/05 00:35:22;;;;;;;3.97;3.53;;;16.80;76.80;;;;;;5032936;28;20025;-73
2023/06/05 00:37:48;;;;;;;5.28;3.80;;;16.80;77.30;;;;;;5033429;28;20045;-73
2023/06/05 00:40:14;;;;;;;3.75;3.45;;;16.80;77.70;;;;;;5037417;28;20017;-75
2023/06/05 00:42:40;;;;;;;4.35;3.47;;;16.80;77.90;;;;;;5044770;28;20033;-75
2023/06/05 00:45:06;;;;;;;4.07;3.25;;;16.80;78.30;;;;;;5044330;28;20025;-74
2023/06/05 00:47:33;;;;;;;3.92;3.30;;;16.80;78.60;;;;;;5031609;28;20033;-74
2023/06/05 00:49:59;;;;;;;3.83;3.25;;;16.80;79.00;;;;;;5032299;28;20455;-74
2023/06/05 00:52:26;;;;;;;3.95;3.25;;;16.80;79.50;;;;;;5032014;28;20029;-74
2023/06/05 00:54:52;;;;;;;3.30;2.92;;;16.80;79.80;;;;;;5032520;28;20017;-74
2023/06/05 00:57:18;;;;;;;3.95;2.95;;;16.80;80.20;;;;;;5033254;28;20091;-74
2023/06/05 00:59:44;;;;;;;3.20;2.95;;;16.80;80.60;;;;;;5033417;28;20087;-75
2023/06/05 01:02:12;;;;;;;4.93;4.10;;;16.80;80.90;;;;;;5033540;28;20059;-74
2023/06/05 01:04:43;;;;;;;4.65;3.63;;;16.80;81.40;;;;;;5032713;28;20387;-73
2023/06/05 01:07:20;;;;;;;4.18;3.75;;;16.80;81.80;;;;;;5032812;28;20664;-73
2023/06/05 01:09:46;;;;;;;5.25;4.28;;;16.80;82.30;;;;;;5034661;28;20029;-74
2023/06/05 01:12:20;;;;;;;5.55;3.75;;;16.80;82.80;;;;;;5041595;28;20021;-73
2023/06/05 01:14:49;;;;;;;6.00;4.55;;;16.70;83.20;;;;;;5038503;28;20048;-75
2023/06/05 01:17:18;;;;;;;6.68;4.45;;;16.70;83.80;;;;;;5032929;28;20041;-74
2023/06/05 01:19:45;;;;;;;5.43;4.43;;;16.70;84.50;;;;;;5033541;28;20057;-74
2023/06/05 01:22:12;;;;;;;6.30;5.15;;;16.60;85.10;;;;;;5033514;28;20021;-74
2023/06/05 01:24:40;;;;;;;5.00;4.40;;;16.60;86.20;;;;;;5033805;28;20025;-74
2023/06/05 01:27:17;;;;;;;5.82;5.05;;;16.50;86.80;;;;;;5032536;28;20402;-74
2023/06/05 01:30:04;;;;;;;3.90;3.40;;;16.50;87.50;;;;;;5033423;28;20100;-74
2023/06/05 01:32:39;;;;;;;4.40;3.88;;;16.50;88.10;;;;;;5031772;28;20077;-74
2023/06/05 01:35:08;;;;;;;4.22;3.85;;;16.50;88.70;;;;;;5032600;28;20037;-73
2023/06/05 01:37:40;;;;;;;5.47;4.75;;;16.40;89.10;;;;;;5032596;28;20079;-73
2023/06/05 01:40:15;;;;;;;;;;;16.40;89.60;;;;;;5035396;28;20115;-74
2023/06/05 01:42:44;;;;;;;4.53;4.13;;;16.40;90.10;;;;;;5043695;28;19908;-74
2023/06/05 01:45:11;;;;;;;5.65;4.95;;;16.30;90.30;;;;;;5041668;28;20036;-73
2023/06/05 01:47:37;;;;;;;4.60;4.13;;;16.30;90.50;;;;;;5032664;28;20133;-73
2023/06/05 01:50:08;;;;;;;4.47;3.90;;;16.30;90.80;;;;;;5033314;28;20471;-73
2023/06/05 01:52:35;;;;;;;3.80;3.50;;;16.20;91.10;;;;;;5031510;28;20032;-74
2023/06/05 01:55:03;;;;;;;3.40;3.10;;;16.20;91.30;;;;;;5032084;28;20026;-74
2023/06/05 01:57:31;;;;;;;3.83;3.33;;;16.20;91.40;;;;;;5032184;28;20057;-74
2023/06/05 01:59:56;;;;;;;4.03;3.60;;;16.10;91.60;;;;;;5036241;28;20029;-74
2023/06/05 02:02:23;;;;;;;5.32;3.65;;;16.10;91.90;;;;;;5036657;28;20026;-73
2023/06/05 02:04:49;;;;;;;3.78;3.28;;;16.10;92.10;;;;;;5035251;28;20078;-74
2023/06/05 02:07:15;;;;;;;3.38;3.08;;;16.10;92.40;;;;;;5036347;28;20463;-75
2023/06/05 02:09:41;;;;;;;3.53;3.22;;;16.10;92.50;;;;;;5037271;28;20051;-74
2023/06/05 02:12:07;;;;;;;3.28;2.97;;;16.10;92.70;;;;;;5047597;28;20027;-74
2023/06/05 02:14:37;;;;;;;2.88;2.55;;;16.00;92.80;;;;;;5050629;28;20079;-74
2023/06/05 02:17:06;;;;;;;3.55;3.10;;;16.00;93.00;;;;;;5051232;28;20117;-74
2023/06/05 02:19:35;;;;;;;3.53;3.22;;;15.90;93.20;;;;;;5034070;28;20166;-74
2023/06/05 02:22:01;;;;;;;3.92;3.50;;;15.90;93.40;;;;;;5036345;28;20041;-74
2023/06/05 02:24:27;;;;;;;4.18;3.78;;;15.80;93.60;;;;;;5034929;28;20026;-74
2023/06/05 02:26:52;;;;;;;3.83;3.42;;;15.80;93.80;;;;;;5036232;28;20045;-75
2023/06/05 02:29:18;;;;;;;3.78;3.47;;;15.70;94.00;;;;;;5035612;28;20398;-74
2023/06/05 02:31:44;;;;;;;3.60;3.30;;;15.70;94.30;;;;;;5036796;28;20117;-74
2023/06/05 02:34:10;;;;;;;3.42;3.20;;;15.70;94.40;;;;;;5035176;28;20036;-74
2023/06/05 02:36:36;;;;;;;4.25;3.85;;;15.60;94.50;;;;;;5035943;28;20025;-74
2023/06/05 02:39:03;;;;;;;4.85;4.25;;;15.60;94.70;;;;;;5035616;28;20064;-73
2023/06/05 02:41:28;;;;;;;3.97;3.58;;;15.60;94.90;;;;;;5046534;28;20021;-75
2023/06/05 02:43:55;;;;;;;3.88;3.58;;;15.50;95.10;;;;;;5043666;28;20479;-72
2023/06/05 02:46:24;;;;;;;4.65;3.72;;;15.50;95.30;;;;;;5043981;28;20028;-73
2023/06/05 02:48:51;;;;;;;4.95;4.13;;;15.50;95.40;;;;;;5046509;28;20171;-74
2023/06/05 02:51:16;;;;;;;6.68;5.30;;;15.50;95.60;;;;;;5046964;28;20029;-74
2023/06/05 02:53:42;;;;;;;4.70;4.30;;;15.40;95.70;;;;;;5052979;28;20093;-73
2023/06/05 02:56:08;;;;;;;4.97;4.47;;;15.40;95.80;;;;;;5038689;28;20494;-74
2023/06/05 02:58:34;;;;;;;6.63;5.00;;;15.40;96.00;;;;;;5035514;28;20042;-73
2023/06/05 03:01:02;;;;;;;4.50;4.10;;;15.30;96.20;;;;;;5035419;28;20022;-73
2023/06/05 03:03:30;;;;;;;4.05;3.65;;;15.20;96.40;;;;;;5036210;28;20502;-73
2023/06/05 03:06:09;;;;;;;4.22;3.83;;;15.10;96.60;;;;;;5035020;28;20029;-73
2023/06/05 03:08:40;;;;;;;4.75;4.35;;;15.10;96.90;;;;;;5035792;28;20030;-75
2023/06/05 03:11:06;;;;;;;6.10;5.18;;;15.00;97.10;;;;;;5023966;28;20082;-74
2023/06/05 03:13:32;;;;;;;6.28;4.90;;;15.00;97.30;;;;;;5039030;28;20021;-74
2023/06/05 03:16:02;;;;;;;5.10;4.47;;;14.90;97.50;;;;;;5039661;28;20037;-75
2023/06/05 03:18:28;;;;;;;5.72;4.60;;;14.90;97.70;;;;;;5035833;28;20029;-72
2023/06/05 03:20:57;;;;;;;5.97;4.70;;;14.90;97.90;;;;;;5035201;28;20458;-74
2023/06/05 03:23:24;;;;;;;5.60;5.00;;;14.90;98.10;;;;;;5037441;28;20098;-74
2023/06/05 03:25:51;;;;;;;5.07;4.57;;;14.80;98.30;;;;;;5036458;28;20081;-74
2023/06/05 03:28:17;;;;;;;4.30;3.90;;;14.80;98.40;;;;;;5034910;28;20118;-75
2023/06/05 03:30:44;;;;;;;4.70;4.20;;;14.80;98.50;;;;;;5035659;28;20037;-73
2023/06/05 03:33:10;;;;;;;5.25;4.55;;;14.80;98.60;;;;;;5034504;28;20020;-74
2023/06/05 03:35:35;;;;;;;4.80;3.83;;;14.80;98.70;;;;;;5041431;28;20033;-71
2023/06/05 03:38:02;;;;;;;4.32;3.92;;;14.80;98.80;;;;;;5044430;28;20037;-74
2023/06/05 03:40:28;;;;;;;4.38;3.97;;;14.80;98.90;;;;;;5037640;28;20486;-75
2023/06/05 03:42:54;;;;;;;3.97;3.58;;;14.80;99.00;;;;;;5039848;28;20033;-74
2023/06/05 03:45:20;;;;;;;5.80;4.03;;;14.80;99.10;;;;;;5041180;28;20038;-74
2023/06/05 03:47:48;;;;;;;4.72;4.25;;;14.80;99.10;;;;;;5035157;28;20375;-73
2023/06/05 03:50:15;;;;;;;5.30;4.25;;;14.80;99.20;;;;;;5035845;28;20044;-74
2023/06/05 03:52:40;;;;;;;5.38;4.10;;;14.80;99.20;;;;;;5036190;28;20374;-74
2023/06/05 03:55:10;;;;;;;5.97;4.78;;;14.80;99.30;;;;;;5035458;28;20033;-75
2023/06/05 03:57:39;;;;;;;6.47;4.43;;;14.80;99.40;;;;;;5035682;28;20117;-74
2023/06/05 04:00:09;;;;;;;4.75;4.32;;;14.80;99.40;;;;;;5035831;28;20426;-74
2023/06/05 04:02:37;;;;;;;4.63;4.15;;;14.90;99.50;;;;;;5035406;28;20017;-73
2023/06/05 04:05:03;;;;;;;5.40;4.07;;;14.90;99.50;;;;;;5034972;28;20370;-74
2023/06/05 04:07:29;;;;;;;4.50;4.10;;;14.90;99.50;;;;;;5034672;28;20092;-73
2023/06/05 04:09:55;;;;;;;4.82;4.38;;;14.90;99.50;;;;;;5037029;28;20029;-72
2023/06/05 04:12:21;;;;;;;5.65;5.05;;;14.90;99.40;;;;;;5048310;28;20025;-73
2023/06/05 04:14:47;;;;;;;4.68;4.28;;;14.90;99.50;;;;;;5041356;28;20468;-73
2023/06/05 04:17:13;;;;;;;5.45;4.95;;;14.90;99.70;;;;;;5037669;28;20092;-73
2023/06/05 04:19:40;;;;;;;5.32;4.82;;;14.80;99.80;;;;;;5038112;28;20048;-73
2023/06/05 04:22:06;;;;;;;8.48;5.53;;;14.80;99.80;;;;;;5037872;28;20048;-73
2023/06/05 04:24:31;;;;;;;7.75;5.57;;;14.80;99.90;;;;;;5041546;28;20021;-73
2023/06/05 04:27:00;;;;;;;11.38;5.82;;;14.80;99.90;;;;;;5039476;28;20033;-73
2023/06/05 04:29:26;;;;;;;5.53;5.00;;;14.80;99.90;;;;;;5040255;28;20077;-73
2023/06/05 04:31:52;;;;;;;5.82;5.07;;;14.90;99.90;;;;;;5041191;28;20037;-73
2023/06/05 04:34:20;;;;;;;5.32;4.82;;;14.90;99.90;;;;;;5044004;28;20112;-73
2023/06/05 04:36:49;;;;;;;4.88;4.38;;;15.00;99.90;;;;;;5042943;28;20036;-73
2023/06/05 04:39:15;;;;;;;4.90;4.40;;;15.10;99.90;;;;;;5044439;28;20021;-74
2023/06/05 04:41:45;;;;;;;7.35;5.93;;;15.20;99.60;;;;;;5047950;28;20029;-74
2023/06/05 04:44:12;;;;;;;6.18;5.47;;;15.30;99.50;;;;;;5050166;28;20036;-74
2023/06/05 04:46:39;;;;;;;7.60;6.65;;;15.40;99.00;;;;;;5034444;28;20473;-74
2023/06/05 04:49:06;;;;;;;6.13;5.53;;;15.50;98.80;;;;;;5035820;28;20447;-74
2023/06/05 04:51:33;;;;;;;6.53;5.20;;;15.50;98.80;;;;;;5034491;28;20021;-73
2023/06/05 04:53:59;;;;;;;6.88;4.93;;;15.60;98.70;;;;;;5034181;28;20025;-73
2023/06/05 04:56:25;;;;;;;6.18;5.45;;;15.60;98.60;;;;;;5034443;28;20398;-73
2023/06/05 04:58:52;;;;;;;7.80;5.50;;;15.70;98.40;;;;;;5034297;28;20030;-74
2023/06/05 05:01:19;;;;;;;7.05;5.50;;;;;;;;;;5039925;28;20050;-76
2023/06/05 05:03:46;;;;;;;5.57;4.97;;;15.90;97.80;;;;;;5034220;28;20036;-75
2023/06/05 05:06:16;;;;;;;5.70;4.45;;;16.00;97.80;;;;;;5034075;28;20022;-75
2023/06/05 05:08:44;;;;;;;5.13;4.55;;;16.10;97.40;;;;;;5035281;28;20464;-75
2023/06/05 05:11:11;;;;;;;6.28;5.07;;;16.20;97.20;;;;;;5042254;28;20386;-75
2023/06/05 05:13:36;;;;;;;6.93;4.93;;;16.20;97.00;;;;;;5044463;28;20052;-75
2023/06/05 05:16:02;;;;;;;6.25;5.32;;;16.30;96.90;;;;;;5038760;28;20483;-75
2023/06/05 05:18:28;;;;;;;7.05;5.28;;;16.30;96.70;;;;;;5032735;28;20034;-75
2023/06/05 05:20:54;;;;;;;5.30;4.80;;;16.40;96.50;;;;;;5033320;28;20079;-76
2023/06/05 05:23:21;;;;;;;6.57;5.82;;;16.40;96.40;;;;;;5035301;28;20033;-77
2023/06/05 05:25:47;;;;;;;5.72;5.18;;;16.40;96.00;;;;;;5013261;28;20613;-76
2023/06/05 05:28:13;;;;;;;7.47;5.07;;;16.50;96.10;;;;;;5014554;28;20184;-76
2023/06/05 05:30:39;;;;;;;6.47;5.30;;;16.60;96.10;;;;;;5014491;28;20140;-77
2023/06/05 05:33:05;;;;;;;7.82;6.15;;;16.70;95.80;;;;;;5015528;28;20061;-76
2023/06/05 05:35:31;;;;;;;5.95;5.40;;;16.70;95.40;;;;;;5017860;28;20032;-75
2023/06/05 05:37:57;;;;;;;6.47;5.28;;;16.80;95.40;;;;;;5017105;28;20104;-75
2023/06/05 05:40:22;;;;;;;8.07;5.85;;;16.90;95.10;;;;;;5030402;28;20033;-76
2023/06/05 05:42:48;;;;;;;8.60;6.05;;;17.00;94.70;;;;;;5036644;28;20017;-76
2023/06/05 05:45:14;;;;;;;8.65;6.65;;;17.00;94.50;;;;;;5036924;28;20025;-77
2023/06/05 05:47:40;;;;;;;8.02;6.47;;;17.10;94.40;;;;;;5037098;28;20036;-76
2023/06/05 05:50:06;;;;;;;8.32;6.88;;;17.20;94.50;;;;;;5037647;28;20681;-75
2023/06/05 05:52:32;;;;;;;8.52;6.78;;;17.30;94.00;;;;;;5037515;28;20025;-74
2023/06/05 05:54:59;;;;;;;8.45;5.68;;;17.30;93.70;;;;;;5038614;28;20014;-74
2023/06/05 05:57:25;;;;;;;6.35;5.10;;;17.30;93.90;;;;;;5036640;28;20052;-76
2023/06/05 05:59:51;;;;;;;7.53;5.22;;;17.40;93.90;;;;;;5039131;28;20018;-75
2023/06/05 06:02:17;;;;;;;6.65;5.32;;;17.50;93.60;;;;;;5037674;28;20083;-76
2023/06/05 06:04:46;;;;;;;5.30;4.80;;;17.60;93.30;;;;;;5037872;28;20033;-77
2023/06/05 06:07:12;;;;;;;5.38;4.63;;;17.80;93.10;;;;;;5018832;28;20018;-75
2023/06/05 06:09:38;;;;;;;8.60;4.75;;;;;;;;;;5034146;28;20032;-75
2023/06/05 06:12:07;;;;;;;5.85;4.78;;;18.30;91.70;;;;;;5050077;28;20103;-76
2023/06/05 06:14:35;;;;;;;5.88;5.22;;;18.40;91.40;;;;;;5057402;28;20503;-74
2023/06/05 06:17:02;;;;;;;5.90;5.25;;;18.50;90.90;;;;;;5040207;28;20416;-75
2023/06/05 06:19:28;;;;;;;6.68;5.43;;;18.60;90.50;;;;;;5037245;28;20385;-75
2023/06/05 06:21:55;;;;;;;6.75;5.72;;;18.60;90.30;;;;;;5038866;28;20037;-75
2023/06/05 06:24:21;;;;;;;7.90;5.40;;;18.30;90.30;;;;;;5038492;28;20032;-75
2023/06/05 06:26:47;;;;;;;6.43;5.15;;;18.20;90.70;;;;;;5037341;28;20087;-76
2023/06/05 06:29:15;;;;;;;6.35;4.78;;;18.20;90.90;;;;;;5037907;28;20040;-74
2023/06/05 06:31:42;;;;;;;7.80;5.93;;;18.20;91.00;;;;;;5036536;28;20079;-74
2023/06/05 06:34:10;;;;;;;5.45;4.50;;;18.10;90.90;;;;;;5036572;28;20463;-75
2023/06/05 06:36:43;;;;;;;4.90;4.40;;;18.10;91.00;;;;;;5041119;28;20029;-74
2023/06/05 06:39:10;;;;;;;4.15;3.75;;;18.00;91.10;;;;;;5038122;28;20087;-74
2023/06/05 06:41:38;;;;;;;4.32;3.63;;;18.10;91.40;;;;;;5047170;28;20025;-75
2023/06/05 06:44:06;;;;;;;5.10;3.80;;;18.30;91.20;;;;;;5018278;28;20049;-74
2023/06/05 06:46:33;;;;;;;4.20;3.80;;;18.50;90.60;;;;;;5034075;28;20027;-74
2023/06/05 06:48:59;;;;;;;4.30;4.00;;;18.40;90.40;;;;;;5053465;28;20037;-74
2023/06/05 06:51:34;;;;;;;6.72;4.70;;;18.50;90.40;;;;;;5040908;28;20047;-74
2023/06/05 06:53:59;;;;;;;4.38;3.97;;;18.60;90.10;;;;;;5037891;28;20032;-75
2023/06/05 06:56:25;;;;;;;7.25;3.95;;;18.90;89.60;;;;;;5036804;28;20309;-76
2023/06/05 06:58:53;;;;;;;4.63;4.20;;;19.10;88.70;;;;;;5035896;28;20040;-76
2023/06/05 07:01:19;;;;;;;4.43;3.75;;;19.30;87.70;;;;;;5037355;28;20022;-76
2023/06/05 07:03:46;;;;;;;3.67;3.38;;;19.80;86.90;;;;;;5036917;28;20026;-76
2023/06/05 07:06:12;;;;;;;3.30;3.08;;;20.30;84.60;;;;;;5038218;28;20018;-76
2023/06/05 07:08:38;;;;;;;3.55;3.00;;;21.00;83.40;;;;;;5036399;28;20072;-77
2023/06/05 07:11:04;;;;;;;3.00;2.70;;;21.90;79.60;;;;;;5041055;28;20032;-76
2023/06/05 07:13:30;;;;;;;2.42;2.22;;;22.40;76.20;;;;;;5041620;28;20402;-76
2023/06/05 07:15:56;;;;;;;3.05;2.75;;;22.90;74.00;;;;;;5037970;28;20494;-76
2023/06/05 07:18:22;;;;;;;2.85;2.65;;;22.90;72.00;;;;;;5038706;28;20030;-77
2023/06/05 07:20:47;;;;;;;2.85;2.65;;;22.50;71.70;;;;;;5037872;28;20077;-77
2023/06/05 07:23:14;;;;;;;2.85;2.60;;;22.30;72.60;;;;;;5036639;28;20053;-76
2023/06/05 07:25:40;;;;;;;2.95;2.70;;;22.20;73.20;;;;;;5036166;28;20025;-77
2023/06/05 07:28:08;;;;;;;3.67;3.03;;;22.10;73.00;;;;;;5036304;28;20168;-75
2023/06/05 07:30:34;;;;;;;2.92;2.70;;;22.00;73.20;;;;;;5037532;28;20124;-76
2023/06/05 07:33:00;;;;;;;3.28;2.97;;;22.00;73.40;;;;;;5041092;28;20057;-76
2023/06/05 07:35:26;;;;;;;2.95;2.70;;;21.90;73.50;;;;;;5042136;28;20044;-76
2023/06/05 07:37:52;;;;;;;4.63;3.42;;;21.90;73.60;;;;;;5023129;28;20049;-76
2023/06/05 07:40:18;;;;;;;3.97;3.58;;;21.70;73.60;;;;;;5027587;28;20475;-76
2023/06/05 07:42:44;;;;;;;8.18;5.15;;;21.50;74.10;;;;;;5039192;28;20021;-77
2023/06/05 07:45:10;;;;;;;5.68;4.68;;;21.40;74.00;;;;;;5056589;28;20025;-76
2023/06/05 07:47:36;;;;;;;5.30;4.65;;;21.40;74.40;;;;;;5059413;28;20554;-77
2023/06/05 07:50:06;;;;;;;4.88;3.80;;;21.30;74.70;;;;;;5042876;28;20529;-77
2023/06/05 07:52:32;;;;;;;5.80;4.15;;;21.30;74.50;;;;;;5039899;28;20033;-77
2023/06/05 07:54:59;;;;;;;6.30;4.70;;;21.30;74.20;;;;;;5039430;28;20036;-77
2023/06/05 07:57:24;;;;;;;7.40;5.18;;;21.30;73.60;;;;;;5041545;28;20036;-77
2023/06/05 07:59:51;;;;;;;5.70;4.20;;;21.00;73.20;;;;;;5045938;28;20018;-76
2023/06/05 08:02:18;;;;;;;3.80;3.38;;;20.80;75.20;;;;;;5045756;28;20057;-76
2023/06/05 08:04:44;;;;;;;3.83;3.45;;;21.00;76.00;;;;;;5047479;28;20033;-76
2023/06/05 08:07:10;;;;;;;5.40;4.32;;;21.30;75.00;;;;;;5044244;28;20017;-76
2023/06/05 08:09:36;;;;;;;6.28;4.80;;;21.20;74.10;;;;;;5053609;28;20040;-76
2023/06/05 08:12:03;;;;;;;5.25;4.00;;;21.10;74.10;;;;;;5054624;28;20025;-77
2023/06/05 08:14:29;;;;;;;6.43;4.80;;;21.10;74.50;;;;;;5045689;28;20075;-77
2023/06/05 08:16:55;;;;;;;6.28;4.60;;;21.00;73.90;;;;;;5038315;28;20486;-77
2023/06/05 08:19:21;;;;;;;10.05;4.55;;;21.00;73.70;;;;;;5037786;28;20031;-76
2023/06/05 08:21:51;;;;;;;6.10;4.45;;;20.90;73.90;;;;;;5036956;28;20001;-76
2023/06/05 08:24:17;;;;;;;7.18;4.20;;;20.90;74.40;;;;;;5036663;28;20020;-76
2023/06/05 08:26:43;;;;;;;6.85;3.72;;;21.00;74.30;;;;;;5037191;28;20025;-76
2023/06/05 08:29:09;;;;;;;5.63;4.15;;;21.00;74.20;;;;;;5034452;28;20033;-76
2023/06/05 08:31:36;;;;;;;5.68;4.45;;;21.00;73.20;;;;;;5034671;28;20056;-75
2023/06/05 08:34:02;;;;;;;5.90;3.63;;;21.10;73.30;;;;;;5039058;28;20042;-76
2023/06/05 08:36:28;;;;;;;4.03;3.63;;;21.20;74.10;;;;;;5037178;28;20116;-75
2023/06/05 08:38:54;;;;;;;6.45;5.13;;;21.40;72.90;;;;;;5037656;28;20069;-76
2023/06/05 08:41:20;;;;;;;9.65;4.97;;;21.50;71.90;;;;;;5042492;28;20021;-76
2023/06/05 08:43:46;;;;;;;7.28;4.95;;;21.30;72.40;;;;;;5036228;28;20049;-76
2023/06/05 08:46:13;;;;;;;4.85;4.13;;;21.30;73.10;;;;;;5034535;28;20064;-75
2023/06/05 08:48:46;;;;;;;6.70;4.03;;;21.30;73.10;;;;;;5036658;28;20069;-74
2023/06/05 08:51:14;;;;;;;4.93;3.75;;;;;;;;;;5035809;28;20519;-75
2023/06/05 08:53:42;;;;;;;7.40;4.45;;;21.40;72.30;;;;;;5035681;28;20483;-75
2023/06/05 08:56:08;;;;;;;5.88;4.35;;;21.60;72.00;;;;;;5035013;28;20036;-76
2023/06/05 08:58:36;;;;;;;7.85;5.30;;;21.80;71.20;;;;;;5035067;28;20025;-75
2023/06/05 09:01:01;;;;;;;3.63;3.20;;;21.80;69.70;;;;;;5033883;28;20017;-75
2023/06/05 09:03:27;;;;;;;5.57;3.92;;;21.90;69.90;;;;;;5035339;28;20059;-76
2023/06/05 09:05:53;;;;;;;5.85;4.85;;;22.00;69.30;;;;;;5034525;28;20037;-75
2023/06/05 09:08:32;;;;;;;4.95;3.55;;;;;;;;;;5034826;28;20030;-76
2023/06/05 09:11:23;;;;;;;5.28;3.45;;;22.00;68.20;;;;;;5044155;28;20033;-75
2023/06/05 09:13:49;;;;;;;3.77;3.10;;;22.20;68.60;;;;;;5055111;28;20409;-75
2023/06/05 09:16:20;;;;;;;4.95;4.25;;;22.40;68.40;;;;;;5053540;28;20557;-75
2023/06/05 09:18:56;;;;;;;7.60;5.22;;;22.50;67.60;;;;;;5057661;28;20052;-78
2023/06/05 09:21:30;;;;;;;6.85;4.13;;;22.50;67.20;;;;;;5059862;28;20107;-77
2023/06/05 09:24:21;;;;;;;6.45;4.15;;;22.30;67.20;;;;;;5041116;28;20097;-77
2023/06/05 09:26:56;;;;;;;5.22;3.90;;;22.10;67.40;;;;;;5026166;28;20041;-76
2023/06/05 09:29:33;;;;;;;3.80;3.50;;;22.30;67.70;;;;;;5037264;28;20124;-76
2023/06/05 09:32:03;;;;;;;4.25;3.55;;;22.60;66.90;;;;;;5036995;28;20025;-76
2023/06/05 09:34:37;;;;;;;6.05;5.18;;;22.80;66.10;;;;;;5036780;28;20017;-76
2023/06/05 09:37:11;;;;;;;5.55;4.50;;;22.70;65.50;;;;;;5036985;28;20113;-76
2023/06/05 09:39:43;;;;;;;4.43;3.72;;;22.50;63.70;;;;;;5036464;28;20095;-77
2023/06/05 09:42:08;;;;;;;4.15;3.75;;;22.50;64.90;;;;;;5043253;28;20417;-76
2023/06/05 09:44:35;;;;;;;5.85;4.50;;;22.70;64.50;;;;;;5035742;28;20091;-76
2023/06/05 09:47:04;;;;;;;5.80;4.35;;;22.90;63.80;;;;;;5038669;28;20021;-77
2023/06/05 09:49:30;;;;;;;6.78;3.58;;;23.00;63.20;;;;;;5044624;28;20120;-77
2023/06/05 09:51:58;;;;;;;3.88;3.40;;;23.20;62.60;;;;;;5039839;28;20512;-77
2023/06/05 09:54:29;;;;;;;6.25;3.70;;;23.40;62.30;;;;;;5036886;28;20026;-77
2023/06/05 09:57:00;;;;;;;5.70;4.40;;;23.70;61.50;;;;;;5034540;28;20104;-77
2023/06/05 09:59:31;;;;;;;5.65;4.75;;;23.70;60.70;;;;;;5035646;28;20102;-77
2023/06/05 10:02:04;;;;;;;4.72;3.53;;;23.50;59.70;;;;;;5037986;28;20036;-76
2023/06/05 10:04:42;;;;;;;3.55;3.25;;;23.50;60.40;;;;;;5034822;28;20039;-75
2023/06/05 10:07:09;;;;;;;6.85;4.32;;;23.90;60.30;;;;;;5037365;28;20079;-75
2023/06/05 10:09:36;;;;;;;5.82;3.47;;;24.10;59.20;;;;;;5038046;28;20021;-74
2023/06/05 10:12:03;;;;;;;3.70;3.40;;;24.00;58.90;;;;;;5046654;28;20026;-75
2023/06/05 10:14:29;;;;;;;3.40;3.10;;;24.10;59.10;;;;;;5037897;28;20030;-74
2023/06/05 10:16:57;;;;;;;7.20;4.10;;;24.30;58.70;;;;;;5044363;28;20022;-74
2023/06/05 10:19:24;;;;;;;6.65;4.00;;;24.30;57.30;;;;;;5046149;28;20123;-75
2023/06/05 10:21:50;;;;;;;5.53;4.25;;;24.20;57.80;;;;;;5047087;28;20026;-76
2023/06/05 10:24:24;;;;;;;5.00;3.70;;;24.10;57.50;;;;;;5043283;28;20026;-76
2023/06/05 10:27:16;;;;;;;5.35;3.75;;;23.80;57.20;;;;;;5044694;28;20029;-75
2023/06/05 10:30:09;;;;;;;4.22;3.83;;;23.80;58.50;;;;;;5041930;28;20522;-76
2023/06/05 10:32:47;;;;;;;5.03;4.13;;;;;;;;;;5046017;28;20065;-75
2023/06/05 10:35:38;;;;;;;4.32;3.47;;;23.90;57.00;;;;;;5045217;28;20201;-76
2023/06/05 10:38:17;;;;;;;4.00;3.70;;;24.00;57.40;;;;;;5044795;28;20061;-75
2023/06/05 10:40:51;;;;;;;5.25;3.90;;;24.20;57.80;;;;;;5044071;28;20028;-75
2023/06/05 10:43:33;;;;;;;3.13;2.92;;;24.60;56.70;;;;;;5061677;28;20044;-75
2023/06/05 10:46:31;;;;;;;3.67;3.38;;;25.00;56.00;;;;;;5055068;28;20018;-73
2023/06/05 10:49:10;;;;;;;4.72;2.70;;;25.30;54.90;;;;;;5053211;28;20025;-74
2023/06/05 10:51:46;;;;;;;4.25;3.70;;;25.30;54.20;;;;;;5052581;28;20017;-75
2023/06/05 10:54:40;;;;;;;5.30;3.67;;;25.10;53.10;;;;;;5050415;28;20048;-75
2023/06/05 10:57:06;;;;;;;4.10;3.75;;;24.60;53.70;;;;;;5040330;28;20072;-75
2023/06/05 10:59:37;;;;;;;5.72;4.13;;;24.50;54.50;;;;;;5042674;28;20048;-74
2023/06/05 11:02:11;;;;;;;5.93;3.80;;;24.40;55.10;;;;;;5067634;22;20128;-77
2023/06/05 11:04:49;;;;;;;5.13;3.95;;;24.50;55.70;;;;;;5059266;28;20021;-78
2023/06/05 11:07:26;;;;;;;4.93;4.43;;;24.60;55.70;;;;;;5039299;28;20036;-78
2023/06/05 11:10:23;;;;;;;5.60;4.00;;;24.70;54.80;;;;;;5042544;28;20041;-78
2023/06/05 11:12:52;;;;;;;7.80;4.10;;;;;;;;;;5045727;28;20052;-79
2023/06/05 11:15:43;;;;;;;4.78;3.55;;;24.80;54.90;;;;;;5043962;28;20032;-79
2023/06/05 11:18:32;;;;;;;3.25;2.97;;;24.80;55.10;;;;;;5029316;28;20093;-79
2023/06/05 11:21:02;;;;;;;4.15;3.72;;;25.00;55.30;;;;;;5029461;28;20029;-78
2023/06/05 11:23:29;;;;;;;6.60;3.95;;;25.30;54.90;;;;;;5024372;28;20080;-79
2023/06/05 11:25:59;;;;;;;4.40;4.00;;;25.40;53.80;;;;;;5032028;28;20024;-79
2023/06/05 11:28:43;;;;;;;4.55;4.07;;;25.40;54.40;;;;;;5047186;28;20052;-80
2023/06/05 11:31:09;;;;;;;4.18;3.75;;;25.00;55.10;;;;;;5039502;28;20033;-78
2023/06/05 11:33:35;;;;;;;4.28;3.58;;;24.90;56.20;;;;;;5040474;28;20029;-78
2023/06/05 11:36:04;;;;;;;4.38;3.80;;;24.90;55.70;;;;;;5040489;28;20037;-79
2023/06/05 11:38:30;;;;;;;4.05;3.65;;;24.90;56.00;;;;;;5043885;28;20077;-78
2023/06/05 11:40:56;;;;;;;4.07;3.40;;;24.90;55.10;;;;;;5043215;28;20022;-80
2023/06/05 11:43:22;;;;;;;5.63;3.20;;;24.90;55.10;;;;;;5041817;28;20025;-81
2023/06/05 11:45:56;;;;;;;4.45;3.25;;;24.90;54.10;;;;;;5041048;28;20049;-78
2023/06/05 11:48:23;;;;;;;3.67;3.22;;;25.00;54.20;;;;;;5017617;28;20038;-78
2023/06/05 11:51:03;;;;;;;3.83;3.10;;;25.00;55.30;;;;;;5017350;28;20489;-77
2023/06/05 11:53:30;;;;;;;3.22;2.97;;;25.10;55.80;;;;;;5036332;28;20041;-78
2023/06/05 11:58:30;;;;;;;4.20;3.50;;;25.40;55.40;;;;;;5020359;28;20038;-77
2023/06/05 12:01:04;;;;;;;6.32;3.85;;;25.40;55.20;;;;;;5018463;28;20033;-77
2023/06/05 12:03:32;;;;;;;5.65;3.28;;;25.40;55.20;;;;;;5018084;28;20048;-78
2023/06/05 12:05:58;;;;;;;3.55;3.25;;;25.40;55.60;;;;;;5020655;28;20065;-79
2023/06/05 12:08:32;;;;;;;3.90;3.50;;;25.20;55.40;;;;;;5031884;28;20493;-79
2023/06/05 12:10:58;;;;;;;3.88;3.00;;;25.10;56.10;;;;;;5030631;28;20029;-78
2023/06/05 12:13:44;;;;;;;3.85;3.42;;;25.10;56.30;;;;;;5026744;28;20104;-79
2023/06/05 12:16:10;;;;;;;2.90;2.70;;;25.50;55.80;;;;;;5034815;28;20057;-79
2023/06/05 12:18:36;;;;;;;2.60;2.40;;;25.70;55.10;;;;;;5035603;28;20029;-79
2023/06/05 12:21:21;;;;;;;2.38;2.17;;;26.00;55.40;;;;;;5037477;28;20060;-78
2023/06/05 12:23:47;;;;;;;3.13;2.80;;;26.40;55.20;;;;;;5037027;28;20033;-78
2023/06/05 12:26:12;;;;;;;4.70;3.28;;;26.40;54.30;;;;;;5036637;28;20104;-78
2023/06/05 12:28:39;;;;;;;5.13;3.30;;;26.20;53.10;;;;;;5035776;28;20421;-78
2023/06/05 12:31:34;;;;;;;6.47;3.50;;;25.60;53.80;;;;;;5037245;28;20022;-79
2023/06/05 12:34:00;;;;;;;3.30;3.00;;;25.20;54.70;;;;;;5039225;28;20109;-78
2023/06/05 12:36:28;;;;;;;3.00;2.80;;;25.10;55.60;;;;;;5039329;28;20049;-78
2023/06/05 12:38:54;;;;;;;2.75;2.55;;;25.20;55.70;;;;;;5040472;28;20086;-77
2023/06/05 12:41:20;;;;;;;4.38;3.53;;;25.30;55.50;;;;;;5035130;28;20038;-78
2023/06/05 12:43:45;;;;;;;4.47;3.17;;;25.40;55.10;;;;;;5033884;28;20041;-79
2023/06/05 12:46:13;;;;;;;3.88;2.95;;;25.50;55.60;;;;;;5048995;28;20312;-77
2023/06/05 12:49:12;;;;;;;3.40;3.05;;;25.90;55.20;;;;;;5041068;28;20029;-79
2023/06/05 12:51:37;;;;;;;3.35;2.80;;;26.00;55.20;;;;;;5036170;28;20387;-79
2023/06/05 12:54:03;;;;;;;3.28;2.92;;;26.00;54.90;;;;;;5039542;28;20025;-79
2023/06/05 12:56:29;;;;;;;3.17;2.88;;;25.80;55.00;;;;;;5038995;28;20068;-78
2023/06/05 12:58:56;;;;;;;3.22;2.88;;;25.70;55.00;;;;;;5034078;28;20212;-79